Time;durP1;ratioP1;P1;durP2;ratioP2;P2;SDS_P1;SDS_P2;PMS_P1;PMS_P2;Temp;Humidity;BMP_temperature;BMP_pressure;BME280_temperature;BME280_humidity;BME280_pressure;Samples;Min_cycle;Max_cycle;Signal;HPM_P1;HPM_P2
2023/06/16 00:00:32;;;;;;;4.03;3.73;;;;;;;;;;5090203;28;20705;-73
2023/06/16 00:02:59;;;;;;;4.63;4.23;;;;;;;;;;5091052;28;20208;-73
2023/06/16 00:05:26;;;;;;;5.63;3.77;;;;;;;;;;5102841;28;20281;-74
2023/06/16 00:07:58;;;;;;;4.43;4.00;;;;;;;;;;5105094;28;20200;-73
2023/06/16 00:10:26;;;;;;;4.43;4.03;;;;;;;;;;5102002;28;20235;-73
2023/06/16 00:12:53;;;;;;;4.93;3.57;;;;;;;;;;5106201;28;20203;-73
2023/06/16 00:15:21;;;;;;;5.00;3.73;;;;;;;;;;5110381;28;20208;-73
2023/06/16 00:17:49;;;;;;;3.93;3.63;;;;;;;;;;5108728;28;20203;-73
2023/06/16 00:20:19;;;;;;;3.77;3.47;;;;;;;;;;5099393;28;20299;-73
2023/06/16 00:22:47;;;;;;;4.40;4.00;;;;;;;;;;5097329;28;20326;-73
2023/06/16 00:25:16;;;;;;;4.67;4.27;;;;;;;;;;5100774;28;20203;-73
2023/06/16 00:27:43;;;;;;;5.00;4.57;;;;;;;;;;5104785;28;20207;-73
2023/06/16 00:30:11;;;;;;;4.17;3.87;;;;;;;;;;5103973;28;20226;-73
2023/06/16 00:32:37;;;;;;;5.23;3.90;;;;;;;;;;5110428;28;20257;-73
2023/06/16 00:35:06;;;;;;;6.20;4.27;;;;;;;;;;5093707;28;20759;-73
2023/06/16 00:37:32;;;;;;;4.47;4.07;;;;;;;;;;5107438;28;20197;-73
2023/06/16 00:39:59;;;;;;;6.87;3.70;;;;;;;;;;5105185;28;20633;-73
2023/06/16 00:42:27;;;;;;;5.10;3.90;;;;;;;;;;5095637;28;20584;-73
2023/06/16 00:44:54;;;;;;;6.33;4.27;;;;;;;;;;5105779;28;20249;-73
2023/06/16 00:47:21;;;;;;;4.03;3.57;;;;;;;;;;5099943;28;20260;-73
2023/06/16 00:49:48;;;;;;;4.90;3.40;;;;;;;;;;5101507;28;20240;-73
2023/06/16 00:52:15;;;;;;;4.43;3.70;;;;;;;;;;5107100;28;20635;-73
2023/06/16 00:54:42;;;;;;;3.53;3.23;;;;;;;;;;5093271;28;20204;-73
2023/06/16 00:57:09;;;;;;;5.10;4.67;;;;;;;;;;5113105;28;20203;-73
2023/06/16 00:59:37;;;;;;;4.67;4.17;;;;;;;;;;5100689;28;20850;-73
2023/06/16 01:02:05;;;;;;;4.13;3.70;;;;;;;;;;5099972;28;20195;-73
2023/06/16 01:04:32;;;;;;;6.70;3.97;;;;;;;;;;5100256;28;20208;-73
2023/06/16 01:07:09;;;;;;;4.23;3.70;;;;;;;;;;5099788;28;20192;-73
2023/06/16 01:09:44;;;;;;;4.50;4.10;;;;;;;;;;5111959;28;20223;-73
2023/06/16 01:12:16;;;;;;;4.30;3.80;;;;;;;;;;5102863;28;21064;-73
2023/06/16 01:14:53;;;;;;;5.13;4.00;;;;;;;;;;5095594;28;21758;-73
2023/06/16 01:17:22;;;;;;;6.27;4.27;;;;;;;;;;5104058;28;20693;-75
2023/06/16 01:19:53;;;;;;;4.03;3.73;;;;;;;;;;5100158;28;20199;-76
2023/06/16 01:22:31;;;;;;;3.90;3.53;;;;;;;;;;5101071;28;20554;-76
2023/06/16 01:25:00;;;;;;;5.70;4.23;;;;;;;;;;5100260;28;20282;-76
2023/06/16 01:27:29;;;;;;;4.63;4.17;;;;;;;;;;5099988;28;20210;-76
2023/06/16 01:29:56;;;;;;;4.30;3.90;;;;;;;;;;5112974;28;20318;-76
2023/06/16 01:32:24;;;;;;;9.47;4.40;;;;;;;;;;5098128;28;20204;-74
2023/06/16 01:34:52;;;;;;;5.60;4.17;;;;;;;;;;5101409;28;20195;-75
2023/06/16 01:37:19;;;;;;;5.13;4.00;;;;;;;;;;5096758;28;20235;-75
2023/06/16 01:39:47;;;;;;;4.43;4.03;;;;;;;;;;5091738;28;20740;-75
2023/06/16 01:42:15;;;;;;;5.63;4.80;;;;;;;;;;5105866;28;20747;-75
2023/06/16 01:44:43;;;;;;;5.53;4.20;;;;;;;;;;5092703;28;20214;-75
2023/06/16 01:47:10;;;;;;;4.70;3.87;;;;;;;;;;5108624;28;20261;-74
2023/06/16 01:49:37;;;;;;;7.07;4.93;;;;;;;;;;5112683;28;20702;-75
2023/06/16 01:52:04;;;;;;;6.17;4.67;;;;;;;;;;5098876;28;20203;-75
2023/06/16 01:54:31;;;;;;;5.57;4.40;;;;;;;;;;5112900;28;20200;-75
2023/06/16 01:56:57;;;;;;;5.27;4.87;;;;;;;;;;5099088;28;20196;-75
2023/06/16 01:59:26;;;;;;;4.30;3.90;;;;;;;;;;5112345;28;20652;-75
2023/06/16 02:01:54;;;;;;;4.90;4.37;;;;;;;;;;5093779;28;20629;-74
2023/06/16 02:04:23;;;;;;;8.63;4.30;;;;;;;;;;5103875;28;20681;-75
2023/06/16 02:06:52;;;;;;;5.30;4.80;;;;;;;;;;5112001;28;20701;-75
2023/06/16 02:09:22;;;;;;;5.07;4.60;;;;;;;;;;5099672;28;20232;-74
2023/06/16 02:11:49;;;;;;;5.80;5.17;;;;;;;;;;5098515;28;20673;-74
2023/06/16 02:14:17;;;;;;;7.53;4.23;;;;;;;;;;5098164;28;20204;-75
2023/06/16 02:16:45;;;;;;;4.90;4.40;;;;;;;;;;5097594;28;20203;-75
2023/06/16 02:19:12;;;;;;;5.70;4.77;;;;;;;;;;5098931;28;20266;-75
2023/06/16 02:21:39;;;;;;;4.83;4.43;;;;;;;;;;5105119;28;20200;-74
2023/06/16 02:24:07;;;;;;;6.63;4.50;;;;;;;;;;5105343;28;20264;-75
2023/06/16 02:26:34;;;;;;;4.37;4.03;;;;;;;;;;5091673;28;20200;-75
2023/06/16 02:29:00;;;;;;;5.63;4.20;;;;;;;;;;5105468;28;20701;-75
2023/06/16 02:31:27;;;;;;;7.50;4.10;;;;;;;;;;5104655;28;20200;-74
2023/06/16 02:33:56;;;;;;;5.47;5.00;;;;;;;;;;5104816;28;20594;-75
2023/06/16 02:36:23;;;;;;;7.30;4.90;;;;;;;;;;5091786;28;20208;-74
2023/06/16 02:38:50;;;;;;;4.30;4.00;;;;;;;;;;5105745;28;20594;-75
2023/06/16 02:41:17;;;;;;;4.97;4.57;;;;;;;;;;5103623;28;20601;-74
2023/06/16 02:43:44;;;;;;;5.23;4.80;;;;;;;;;;5092706;28;20200;-74
2023/06/16 02:46:11;;;;;;;4.50;4.17;;;;;;;;;;5105825;28;20207;-74
2023/06/16 02:48:37;;;;;;;9.77;4.67;;;;;;;;;;5108370;28;20590;-75
2023/06/16 02:51:06;;;;;;;5.77;4.83;;;;;;;;;;5091189;28;20202;-76
2023/06/16 02:53:33;;;;;;;5.73;5.13;;;;;;;;;;5093477;28;20192;-75
2023/06/16 02:56:00;;;;;;;5.47;4.47;;;;;;;;;;5111659;28;20200;-74
2023/06/16 02:58:26;;;;;;;5.40;4.60;;;;;;;;;;5097913;28;20324;-74
2023/06/16 03:00:53;;;;;;;5.43;4.90;;;;;;;;;;5111496;28;20204;-74
2023/06/16 03:03:21;;;;;;;5.43;4.77;;;;;;;;;;5103918;28;20196;-74
2023/06/16 03:05:48;;;;;;;5.30;4.80;;;;;;;;;;5100674;28;20258;-75
2023/06/16 03:08:16;;;;;;;4.80;4.40;;;;;;;;;;5108455;28;20716;-74
2023/06/16 03:10:43;;;;;;;6.50;4.70;;;;;;;;;;5111374;28;20743;-74
2023/06/16 03:13:10;;;;;;;5.33;4.90;;;;;;;;;;5105899;28;20222;-75
2023/06/16 03:15:37;;;;;;;5.03;4.53;;;;;;;;;;5102758;28;20199;-75
2023/06/16 03:18:03;;;;;;;4.93;4.53;;;;;;;;;;5110371;28;20211;-75
2023/06/16 03:20:30;;;;;;;5.73;4.33;;;;;;;;;;5111452;28;20249;-75
2023/06/16 03:22:57;;;;;;;5.10;4.47;;;;;;;;;;5106967;28;20211;-74
2023/06/16 03:25:25;;;;;;;7.53;3.93;;;;;;;;;;5101339;28;20636;-77
2023/06/16 03:27:52;;;;;;;5.83;4.47;;;;;;;;;;5097836;28;20643;-76
2023/06/16 03:30:18;;;;;;;4.87;4.40;;;;;;;;;;5099696;28;20737;-77
2023/06/16 03:32:45;;;;;;;4.87;4.47;;;;;;;;;;5108179;28;20257;-76
2023/06/16 03:35:13;;;;;;;5.47;4.30;;;;;;;;;;5099824;28;20261;-76
2023/06/16 03:37:39;;;;;;;4.97;4.47;;;;;;;;;;5090827;28;20232;-76
2023/06/16 03:40:10;;;;;;;4.93;4.53;;;;;;;;;;5090567;28;20620;-77
2023/06/16 03:42:38;;;;;;;5.53;4.80;;;;;;;;;;5104351;28;20200;-77
2023/06/16 03:45:06;;;;;;;5.23;4.73;;;;;;;;;;5103712;28;20207;-77
2023/06/16 03:47:32;;;;;;;5.10;4.70;;;;;;;;;;5095171;28;20286;-77
2023/06/16 03:49:59;;;;;;;6.23;5.67;;;;;;;;;;5103630;28;20292;-77
2023/06/16 03:52:26;;;;;;;5.63;4.63;;;;;;;;;;5110661;28;20248;-77
2023/06/16 03:54:53;;;;;;;4.53;4.23;;;;;;;;;;5110550;28;20294;-77
2023/06/16 03:57:20;;;;;;;3.87;3.50;;;;;;;;;;5103313;28;20212;-77
2023/06/16 03:59:48;;;;;;;5.03;4.37;;;;;;;;;;5104316;28;20200;-77
2023/06/16 04:02:16;;;;;;;4.50;4.10;;;;;;;;;;5111627;28;20211;-77
2023/06/16 04:04:45;;;;;;;10.57;4.37;;;;;;;;;;5100605;28;20254;-77
2023/06/16 04:07:12;;;;;;;7.00;4.50;;;;;;;;;;5103295;28;20199;-76
2023/06/16 04:09:39;;;;;;;4.77;4.30;;;;;;;;;;5114452;28;20314;-77
2023/06/16 04:12:07;;;;;;;7.67;4.13;;;;;;;;;;5112669;28;20674;-77
2023/06/16 04:14:33;;;;;;;6.93;5.33;;;;;;;;;;5112737;28;20290;-77
2023/06/16 04:17:02;;;;;;;5.07;4.67;;;;;;;;;;5109183;28;21053;-76
2023/06/16 04:19:28;;;;;;;4.90;4.50;;;;;;;;;;5097087;28;20594;-76
2023/06/16 04:21:57;;;;;;;5.10;4.27;;;;;;;;;;5096194;28;20203;-77
2023/06/16 04:24:24;;;;;;;5.90;5.00;;;;;;;;;;5102825;28;20208;-77
2023/06/16 04:26:52;;;;;;;5.60;5.20;;;;;;;;;;5100811;28;20228;-76
2023/06/16 04:29:20;;;;;;;6.13;5.00;;;;;;;;;;5104967;28;20204;-77
2023/06/16 04:31:48;;;;;;;4.70;4.30;;;;;;;;;;5107406;28;20690;-77
2023/06/16 04:34:17;;;;;;;5.00;4.40;;;;;;;;;;5103303;28;20210;-77
2023/06/16 04:36:44;;;;;;;5.07;4.57;;;;;;;;;;5099093;28;20199;-77
2023/06/16 04:39:11;;;;;;;5.40;4.63;;;;;;;;;;5112242;28;20199;-77
2023/06/16 04:41:38;;;;;;;4.97;4.50;;;;;;;;;;5095334;28;20283;-77
2023/06/16 04:44:07;;;;;;;5.27;4.87;;;;;;;;;;5104219;28;20195;-76
2023/06/16 04:46:34;;;;;;;5.73;5.00;;;;;;;;;;5107859;28;20227;-77
2023/06/16 04:49:01;;;;;;;9.23;5.63;;;;;;;;;;5105345;28;20235;-76
2023/06/16 04:51:29;;;;;;;5.33;4.83;;;;;;;;;;5097536;28;20803;-77
2023/06/16 04:53:56;;;;;;;5.93;5.00;;;;;;;;;;5109897;28;20204;-76
2023/06/16 04:56:23;;;;;;;5.20;4.80;;;;;;;;;;5102240;28;20199;-77
2023/06/16 04:58:50;;;;;;;5.43;4.93;;;;;;;;;;5098328;28;20208;-77
2023/06/16 05:01:16;;;;;;;6.30;5.33;;;;;;;;;;5113544;28;20206;-77
2023/06/16 05:03:43;;;;;;;5.20;4.73;;;;;;;;;;5097905;28;20204;-77
2023/06/16 05:06:10;;;;;;;6.80;4.80;;;;;;;;;;5108375;28;20196;-77
2023/06/16 05:08:39;;;;;;;5.53;5.03;;;;;;;;;;5110822;28;20219;-77
2023/06/16 05:11:06;;;;;;;5.87;5.27;;;;;;;;;;5112650;28;20251;-77
2023/06/16 05:13:33;;;;;;;6.17;5.53;;;;;;;;;;5102589;28;20201;-76
2023/06/16 05:15:59;;;;;;;5.60;5.10;;;;;;;;;;5109327;28;20207;-76
2023/06/16 05:18:26;;;;;;;5.10;4.40;;;;;;;;;;5113429;28;20204;-77
2023/06/16 05:20:53;;;;;;;6.07;5.00;;;;;;;;;;5099605;28;20687;-76
2023/06/16 05:23:19;;;;;;;6.43;5.47;;;;;;;;;;5105929;28;20208;-76
2023/06/16 05:25:48;;;;;;;6.67;6.07;;;;;;;;;;5093151;28;20679;-77
2023/06/16 05:28:14;;;;;;;6.80;6.10;;;;;;;;;;5105135;28;20204;-77
2023/06/16 05:30:41;;;;;;;10.43;5.87;;;;;;;;;;5107333;28;20227;-76
2023/06/16 05:33:08;;;;;;;6.10;5.53;;;;;;;;;;5105420;28;20283;-76
2023/06/16 05:35:35;;;;;;;6.03;5.33;;;;;;;;;;5106180;28;20296;-76
2023/06/16 05:38:01;;;;;;;7.67;5.37;;;;;;;;;;5100726;28;20196;-76
2023/06/16 05:40:28;;;;;;;5.57;5.07;;;;;;;;;;5099668;28;20207;-76
2023/06/16 05:42:56;;;;;;;7.17;5.13;;;;;;;;;;5104049;28;20204;-76
2023/06/16 05:45:23;;;;;;;10.47;6.33;;;;;;;;;;5106415;28;20208;-76
2023/06/16 05:47:50;;;;;;;5.13;4.67;;;;;;;;;;5092029;28;20204;-76
2023/06/16 05:50:17;;;;;;;6.00;5.40;;;;;;;;;;5106204;28;20320;-76
2023/06/16 05:52:43;;;;;;;6.30;4.77;;;;;;;;;;5102162;28;20203;-76
2023/06/16 05:55:10;;;;;;;7.00;4.97;;;;;;;;;;5098493;28;20683;-77
2023/06/16 05:57:37;;;;;;;14.23;4.73;;;;;;;;;;5112978;28;20203;-76
2023/06/16 06:00:10;;;;;;;7.63;4.43;;;;;;;;;;5096116;28;20295;-76
2023/06/16 06:02:37;;;;;;;7.43;5.07;;;;;;;;;;5092569;28;20683;-76
2023/06/16 06:05:04;;;;;;;9.17;5.17;;;;;;;;;;5105933;28;20192;-76
2023/06/16 06:07:33;;;;;;;5.30;4.87;;;;;;;;;;5102909;28;20211;-76
2023/06/16 06:10:02;;;;;;;5.30;4.47;;;;;;;;;;5112168;28;20219;-76
2023/06/16 06:12:29;;;;;;;7.10;4.80;;;;;;;;;;5101019;28;20258;-76
2023/06/16 06:14:56;;;;;;;10.23;5.23;;;;;;;;;;5105441;28;20200;-76
2023/06/16 06:17:24;;;;;;;6.53;4.60;;;;;;;;;;5103884;28;20268;-76
2023/06/16 06:19:51;;;;;;;4.90;4.40;;;;;;;;;;5093172;28;20279;-76
2023/06/16 06:22:17;;;;;;;6.67;4.93;;;;;;;;;;5092026;28;20199;-76
2023/06/16 06:24:44;;;;;;;4.30;3.90;;;;;;;;;;5105217;28;20200;-76
2023/06/16 06:27:12;;;;;;;5.00;4.60;;;;;;;;;;5099439;28;20282;-76
2023/06/16 06:29:39;;;;;;;4.73;4.20;;;;;;;;;;5104793;28;20290;-76
2023/06/16 06:32:12;;;;;;;9.10;4.97;;;;;;;;;;5091502;28;20223;-76
2023/06/16 06:34:40;;;;;;;5.53;4.23;;;;;;;;;;5105424;28;20203;-76
2023/06/16 06:37:08;;;;;;;4.73;4.20;;;;;;;;;;5091311;28;20249;-76
2023/06/16 06:39:35;;;;;;;5.13;4.63;;;;;;;;;;5104610;28;20195;-76
2023/06/16 06:42:02;;;;;;;5.73;4.63;;;;;;;;;;5100489;28;20627;-76
2023/06/16 06:44:28;;;;;;;4.97;4.00;;;;;;;;;;5095659;28;20213;-76
2023/06/16 06:46:57;;;;;;;5.67;3.67;;;;;;;;;;5091058;28;20200;-76
2023/06/16 06:49:24;;;;;;;4.60;3.53;;;;;;;;;;5104978;28;20226;-76
2023/06/16 06:51:52;;;;;;;5.67;3.90;;;;;;;;;;5100581;28;20276;-76
2023/06/16 06:54:18;;;;;;;6.07;4.13;;;;;;;;;;5108434;28;20250;-76
2023/06/16 06:56:45;;;;;;;11.77;3.80;;;;;;;;;;5091005;28;20674;-77
2023/06/16 06:59:12;;;;;;;4.93;3.40;;;;;;;;;;5107795;28;20203;-76
2023/06/16 07:01:38;;;;;;;7.67;4.17;;;;;;;;;;5101145;28;20651;-76
2023/06/16 07:04:05;;;;;;;4.53;3.50;;;;;;;;;;5104589;28;20200;-76
2023/06/16 07:06:33;;;;;;;5.47;3.93;;;;;;;;;;5090832;28;20204;-76
2023/06/16 07:09:02;;;;;;;3.67;3.47;;;;;;;;;;5108637;28;20194;-76
2023/06/16 07:11:29;;;;;;;3.77;3.47;;;;;;;;;;5111023;28;20747;-76
2023/06/16 07:13:56;;;;;;;7.33;3.23;;;;;;;;;;5106301;28;20219;-76
2023/06/16 07:16:22;;;;;;;5.00;3.87;;;;;;;;;;5093119;28;20562;-76
2023/06/16 07:18:49;;;;;;;9.00;3.30;;;;;;;;;;5110448;28;20203;-76
2023/06/16 07:21:16;;;;;;;5.80;2.77;;;;;;;;;;5094012;28;20721;-76
2023/06/16 07:23:43;;;;;;;5.93;3.80;;;;;;;;;;5091171;28;20279;-76
2023/06/16 07:26:11;;;;;;;6.53;3.33;;;;;;;;;;5090838;28;20728;-76
2023/06/16 07:28:39;;;;;;;5.00;3.50;;;;;;;;;;5090431;28;20675;-76
2023/06/16 07:31:06;;;;;;;4.03;3.10;;;;;;;;;;5095492;28;20646;-76
2023/06/16 07:33:33;;;;;;;2.97;2.27;;;;;;;;;;5099344;28;20230;-76
2023/06/16 07:36:00;;;;;;;3.50;3.20;;;;;;;;;;5095894;28;20704;-76
2023/06/16 07:38:27;;;;;;;11.30;4.03;;;;;;;;;;5101012;28;20234;-77
2023/06/16 07:40:54;;;;;;;10.67;3.73;;;;;;;;;;5113935;28;20195;-76
2023/06/16 07:43:22;;;;;;;4.70;2.90;;;;;;;;;;5102855;28;20287;-76
2023/06/16 07:45:50;;;;;;;5.53;2.93;;;;;;;;;;5108404;28;20242;-76
2023/06/16 07:48:17;;;;;;;4.53;2.70;;;;;;;;;;5107866;28;20206;-77
2023/06/16 07:50:43;;;;;;;2.30;2.20;;;;;;;;;;5115285;28;20223;-76
2023/06/16 07:53:10;;;;;;;2.00;1.90;;;;;;;;;;5115183;28;20248;-75
2023/06/16 07:55:37;;;;;;;2.57;2.17;;;;;;;;;;5108705;28;20675;-76
2023/06/16 07:58:04;;;;;;;5.53;2.67;;;;;;;;;;5107666;28;20200;-76
2023/06/16 08:00:32;;;;;;;2.27;2.07;;;;;;;;;;5101678;28;20210;-76
2023/06/16 08:02:59;;;;;;;2.10;1.90;;;;;;;;;;5101114;28;20211;-76
2023/06/16 08:05:26;;;;;;;2.33;2.13;;;;;;;;;;5094933;28;20272;-76
2023/06/16 08:07:53;;;;;;;5.23;3.90;;;;;;;;;;5108115;28;20224;-76
2023/06/16 08:10:20;;;;;;;4.27;2.30;;;;;;;;;;5107294;28;20744;-76
2023/06/16 08:12:49;;;;;;;3.43;2.30;;;;;;;;;;5095277;28;20328;-76
2023/06/16 08:15:16;;;;;;;2.77;2.50;;;;;;;;;;5107096;28;20200;-76
2023/06/16 08:17:44;;;;;;;2.57;2.37;;;;;;;;;;5107661;28;20665;-76
2023/06/16 08:20:12;;;;;;;2.43;2.20;;;;;;;;;;5102163;28;20578;-76
2023/06/16 08:22:39;;;;;;;2.90;2.70;;;;;;;;;;5113911;28;20195;-76
2023/06/16 08:25:06;;;;;;;3.83;2.80;;;;;;;;;;5114678;28;20249;-76
2023/06/16 08:27:33;;;;;;;3.67;2.87;;;;;;;;;;5113897;28;20200;-76
2023/06/16 08:29:59;;;;;;;3.70;2.90;;;;;;;;;;5105591;28;20204;-76
2023/06/16 08:32:26;;;;;;;3.37;2.67;;;;;;;;;;5107232;28;20227;-76
2023/06/16 08:34:54;;;;;;;4.90;2.63;;;;;;;;;;5103003;28;20199;-76
2023/06/16 08:37:22;;;;;;;3.43;3.20;;;;;;;;;;5100507;28;20306;-76
2023/06/16 08:39:49;;;;;;;6.77;3.47;;;;;;;;;;5104920;28;20203;-77
2023/06/16 08:42:17;;;;;;;4.23;3.00;;;;;;;;;;5107290;28;20719;-76
2023/06/16 08:44:44;;;;;;;5.50;3.90;;;;;;;;;;5093979;28;20568;-76
2023/06/16 08:47:11;;;;;;;8.23;4.03;;;;;;;;;;5093486;28;20671;-75
2023/06/16 08:49:39;;;;;;;4.13;3.70;;;;;;;;;;5103127;28;20280;-75
2023/06/16 08:52:09;;;;;;;4.67;3.70;;;;;;;;;;5100001;28;20663;-75
2023/06/16 08:54:46;;;;;;;5.93;4.40;;;;;;;;;;5102773;28;20694;-76
2023/06/16 08:57:14;;;;;;;5.87;4.63;;;;;;;;;;5107441;28;20219;-76
2023/06/16 08:59:42;;;;;;;5.70;4.30;;;;;;;;;;5093838;28;20196;-76
2023/06/16 09:02:09;;;;;;;4.70;4.30;;;;;;;;;;5106949;28;20744;-76
2023/06/16 09:04:37;;;;;;;10.70;4.20;;;;;;;;;;5106796;28;20207;-76
2023/06/16 09:07:05;;;;;;;6.07;4.23;;;;;;;;;;5106971;28;20207;-76
2023/06/16 09:09:34;;;;;;;8.30;4.80;;;;;;;;;;5106858;28;20231;-76
2023/06/16 09:12:07;;;;;;;4.97;4.40;;;;;;;;;;5100536;28;20227;-76
2023/06/16 09:14:36;;;;;;;4.83;4.20;;;;;;;;;;5111970;28;20234;-76
2023/06/16 09:17:05;;;;;;;5.40;4.20;;;;;;;;;;5101918;28;20200;-76
2023/06/16 09:19:34;;;;;;;6.90;4.93;;;;;;;;;;5113427;28;20245;-76
2023/06/16 09:22:02;;;;;;;6.00;4.63;;;;;;;;;;5113273;28;20203;-76
2023/06/16 09:24:29;;;;;;;4.93;4.43;;;;;;;;;;5099086;28;20656;-76
2023/06/16 09:27:02;;;;;;;6.13;4.23;;;;;;;;;;5102821;28;20201;-76
2023/06/16 09:29:29;;;;;;;4.77;3.70;;;;;;;;;;5106424;28;20188;-76
2023/06/16 09:32:08;;;;;;;5.10;4.60;;;;;;;;;;5092616;28;20326;-76
2023/06/16 09:34:35;;;;;;;5.17;4.70;;;;;;;;;;5106549;28;20253;-76
2023/06/16 09:37:02;;;;;;;6.83;6.20;;;;;;;;;;5105989;28;20699;-76
2023/06/16 09:39:29;;;;;;;8.70;5.37;;;;;;;;;;5092723;28;20201;-76
2023/06/16 09:41:59;;;;;;;5.93;5.40;;;;;;;;;;5092310;28;20710;-76
2023/06/16 09:44:27;;;;;;;5.57;5.03;;;;;;;;;;5100315;28;20211;-76
2023/06/16 09:46:54;;;;;;;5.07;4.53;;;;;;;;;;5112493;28;20221;-76
2023/06/16 09:49:22;;;;;;;6.37;4.93;;;;;;;;;;5113015;28;20319;-76
2023/06/16 09:51:52;;;;;;;6.23;5.67;;;;;;;;;;5111391;28;20230;-76
2023/06/16 09:54:20;;;;;;;6.83;5.83;;;;;;;;;;5101708;28;20291;-76
2023/06/16 09:56:47;;;;;;;6.80;5.47;;;;;;;;;;5096309;28;20204;-76
2023/06/16 09:59:16;;;;;;;7.70;6.90;;;;;;;;;;5101859;28;20203;-76
2023/06/16 10:01:59;;;;;;;6.50;6.00;;;;;;;;;;5108749;28;20973;-76
2023/06/16 10:04:26;;;;;;;8.23;7.37;;;;;;;;;;5104729;28;20237;-76
2023/06/16 10:06:55;;;;;;;10.00;7.07;;;;;;;;;;5106702;28;20257;-76
2023/06/16 10:09:27;;;;;;;9.30;7.33;;;;;;;;;;5105148;28;20288;-76
2023/06/16 10:11:54;;;;;;;8.37;7.53;;;;;;;;;;5091729;28;20226;-76
2023/06/16 10:14:26;;;;;;;8.87;7.97;;;;;;;;;;5105758;28;20203;-76
2023/06/16 10:16:56;;;;;;;7.80;7.00;;;;;;;;;;5104960;28;20278;-76
2023/06/16 10:19:23;;;;;;;11.20;8.13;;;;;;;;;;5105229;28;20589;-76
2023/06/16 10:21:50;;;;;;;7.43;6.83;;;;;;;;;;5100261;28;20203;-77
2023/06/16 10:24:18;;;;;;;8.33;7.37;;;;;;;;;;5098655;28;20228;-79
2023/06/16 10:26:45;;;;;;;10.03;7.10;;;;;;;;;;5111971;28;20200;-80
2023/06/16 10:29:16;;;;;;;7.97;7.17;;;;;;;;;;5110402;28;20265;-81
2023/06/16 10:31:45;;;;;;;8.70;7.90;;;;;;;;;;5100993;28;20262;-80
2023/06/16 10:34:19;;;;;;;8.50;6.90;;;;;;;;;;5111991;28;20702;-80
2023/06/16 10:36:46;;;;;;;8.97;8.13;;;;;;;;;;5100917;28;20762;-81
2023/06/16 10:39:13;;;;;;;10.10;7.83;;;;;;;;;;5096013;28;20264;-81
2023/06/16 10:41:50;;;;;;;8.33;6.80;;;;;;;;;;5111960;28;20207;-80
2023/06/16 10:44:24;;;;;;;9.33;7.30;;;;;;;;;;5111636;28;20256;-80
2023/06/16 10:47:29;;;;;;;8.80;6.90;;;;;;;;;;5111208;28;20633;-80
2023/06/16 10:50:02;;;;;;;10.40;6.60;;;;;;;;;;5093570;28;20227;-80
2023/06/16 10:52:51;;;;;;;7.33;6.57;;;;;;;;;;5091603;28;20231;-79
2023/06/16 10:55:25;;;;;;;7.37;6.67;;;;;;;;;;5104718;28;20223;-79
2023/06/16 10:57:58;;;;;;;6.10;5.60;;;;;;;;;;5102060;28;20202;-79
2023/06/16 11:00:27;;;;;;;9.63;6.07;;;;;;;;;;5097745;28;20211;-79
2023/06/16 11:02:59;;;;;;;9.50;6.30;;;;;;;;;;5099114;28;20291;-79
2023/06/16 11:05:38;;;;;;;7.10;5.80;;;;;;;;;;5104659;28;20215;-78
2023/06/16 11:08:15;;;;;;;7.80;5.90;;;;;;;;;;5093068;28;20591;-78
2023/06/16 11:10:48;;;;;;;7.50;5.23;;;;;;;;;;5101839;28;20651;-78
2023/06/16 11:13:15;;;;;;;6.77;5.23;;;;;;;;;;5090960;28;20311;-78
2023/06/16 11:15:43;;;;;;;7.23;5.83;;;;;;;;;;5091011;28;20682;-77
2023/06/16 11:18:10;;;;;;;5.10;4.70;;;;;;;;;;5108355;28;20234;-77
2023/06/16 11:20:38;;;;;;;9.53;5.20;;;;;;;;;;5111500;28;20211;-77
2023/06/16 11:23:05;;;;;;;7.27;5.77;;;;;;;;;;5092754;28;20205;-77
2023/06/16 11:25:32;;;;;;;5.00;4.50;;;;;;;;;;5102934;28;20233;-77
2023/06/16 11:27:59;;;;;;;4.77;4.33;;;;;;;;;;5105516;28;20678;-77
2023/06/16 11:30:28;;;;;;;4.83;4.40;;;;;;;;;;5103088;28;20274;-77
2023/06/16 11:32:57;;;;;;;4.10;3.80;;;;;;;;;;5096950;28;20219;-77
2023/06/16 11:35:33;;;;;;;5.80;4.33;;;;;;;;;;5098307;28;20203;-77
2023/06/16 11:38:02;;;;;;;4.40;4.00;;;;;;;;;;5098217;28;20289;-76
2023/06/16 11:40:30;;;;;;;5.70;3.90;;;;;;;;;;5096441;28;20207;-76
2023/06/16 11:42:58;;;;;;;4.60;4.17;;;;;;;;;;5090705;28;20645;-76
2023/06/16 11:45:25;;;;;;;5.43;3.83;;;;;;;;;;5104716;28;20199;-77
2023/06/16 11:47:52;;;;;;;4.67;3.53;;;;;;;;;;5099114;28;20195;-77
2023/06/16 11:50:19;;;;;;;7.63;3.87;;;;;;;;;;5095730;28;20277;-76
2023/06/16 11:52:46;;;;;;;4.90;3.73;;;;;;;;;;5099380;28;20631;-76
2023/06/16 11:55:14;;;;;;;9.10;4.07;;;;;;;;;;5110660;28;20342;-76
2023/06/16 11:57:41;;;;;;;4.33;3.67;;;;;;;;;;5110598;28;20238;-76
2023/06/16 12:00:10;;;;;;;4.73;4.17;;;;;;;;;;5110915;28;20215;-76
2023/06/16 12:02:37;;;;;;;4.33;3.37;;;;;;;;;;5100607;28;20734;-77
2023/06/16 12:05:07;;;;;;;5.40;3.90;;;;;;;;;;5093694;28;20206;-76
2023/06/16 12:07:34;;;;;;;5.67;4.40;;;;;;;;;;5110799;28;20214;-77
2023/06/16 12:10:03;;;;;;;5.20;3.83;;;;;;;;;;5110823;28;20207;-76
2023/06/16 12:12:31;;;;;;;4.80;3.87;;;;;;;;;;5110637;28;20306;-76
2023/06/16 12:14:59;;;;;;;5.13;4.13;;;;;;;;;;5092562;28;22179;-76
2023/06/16 12:17:26;;;;;;;4.10;3.77;;;;;;;;;;5102240;28;20199;-77
2023/06/16 12:19:53;;;;;;;6.93;4.20;;;;;;;;;;5096914;28;20199;-78
2023/06/16 12:22:21;;;;;;;5.50;4.13;;;;;;;;;;5110329;28;20681;-78
2023/06/16 12:24:48;;;;;;;4.93;4.53;;;;;;;;;;5108581;28;20614;-79
2023/06/16 12:27:21;;;;;;;4.73;4.33;;;;;;;;;;5106446;28;20203;-79
2023/06/16 12:29:50;;;;;;;4.57;4.17;;;;;;;;;;5115105;28;20199;-79
2023/06/16 12:32:16;;;;;;;4.97;4.37;;;;;;;;;;5113149;28;20715;-80
2023/06/16 12:34:44;;;;;;;6.17;4.87;;;;;;;;;;5094145;28;20204;-80
2023/06/16 12:37:11;;;;;;;9.40;4.47;;;;;;;;;;5107593;28;20707;-79
2023/06/16 12:39:38;;;;;;;5.20;4.40;;;;;;;;;;5114179;28;20641;-79
2023/06/16 12:42:07;;;;;;;5.47;4.27;;;;;;;;;;5098726;28;20757;-78
2023/06/16 12:44:45;;;;;;;5.37;4.40;;;;;;;;;;5103053;28;20207;-78
2023/06/16 12:47:13;;;;;;;6.70;5.30;;;;;;;;;;5100181;28;20195;-78
2023/06/16 12:49:40;;;;;;;5.30;4.13;;;;;;;;;;5114178;28;20227;-77
2023/06/16 12:52:08;;;;;;;5.00;4.40;;;;;;;;;;5108877;28;20224;-77
2023/06/16 12:54:35;;;;;;;5.23;4.70;;;;;;;;;;5105670;28;20199;-77
2023/06/16 12:57:03;;;;;;;9.23;4.27;;;;;;;;;;5094684;28;20582;-77
2023/06/16 12:59:29;;;;;;;5.17;4.10;;;;;;;;;;5093725;28;20208;-77
2023/06/16 13:01:56;;;;;;;4.73;4.33;;;;;;;;;;5093770;28;20622;-76
2023/06/16 13:04:25;;;;;;;6.50;4.13;;;;;;;;;;5105833;28;20249;-77
2023/06/16 13:06:52;;;;;;;5.27;4.17;;;;;;;;;;5099961;28;20202;-77
2023/06/16 13:09:20;;;;;;;6.67;4.63;;;;;;;;;;5101180;28;20253;-76
2023/06/16 13:11:47;;;;;;;7.60;4.90;;;;;;;;;;5113474;28;20233;-76
2023/06/16 13:14:14;;;;;;;5.47;4.37;;;;;;;;;;5113781;28;20657;-76
2023/06/16 13:16:41;;;;;;;5.33;4.37;;;;;;;;;;5098886;28;20362;-76
2023/06/16 13:19:08;;;;;;;5.33;4.77;;;;;;;;;;5113846;28;20195;-76
2023/06/16 13:21:36;;;;;;;8.07;4.27;;;;;;;;;;5099890;28;20195;-76
2023/06/16 13:24:03;;;;;;;4.93;4.20;;;;;;;;;;5100269;28;20632;-76
2023/06/16 13:26:30;;;;;;;5.17;4.67;;;;;;;;;;5093339;28;20207;-76
2023/06/16 13:28:57;;;;;;;5.03;4.63;;;;;;;;;;5106526;28;20196;-77
2023/06/16 13:31:23;;;;;;;5.53;4.70;;;;;;;;;;5099940;28;20196;-77
2023/06/16 13:33:50;;;;;;;6.70;4.43;;;;;;;;;;5113337;28;20727;-76
2023/06/16 13:36:18;;;;;;;5.50;4.67;;;;;;;;;;5112467;28;20200;-76
2023/06/16 13:38:47;;;;;;;7.87;4.83;;;;;;;;;;5098644;28;20290;-76
2023/06/16 13:41:14;;;;;;;6.53;4.90;;;;;;;;;;5100359;28;20195;-77
2023/06/16 13:43:41;;;;;;;6.43;4.57;;;;;;;;;;5111496;28;20196;-77
2023/06/16 13:46:08;;;;;;;6.63;4.30;;;;;;;;;;5100846;28;20195;-77
2023/06/16 13:48:35;;;;;;;10.00;4.57;;;;;;;;;;5097561;28;20200;-77
2023/06/16 13:51:02;;;;;;;5.10;4.70;;;;;;;;;;5100710;28;20195;-77
2023/06/16 13:53:29;;;;;;;5.67;4.67;;;;;;;;;;5097564;28;20232;-77
2023/06/16 13:55:59;;;;;;;5.07;4.40;;;;;;;;;;5101447;28;20694;-77
2023/06/16 13:58:25;;;;;;;7.20;4.40;;;;;;;;;;5098669;28;20200;-77
2023/06/16 14:00:52;;;;;;;6.67;3.97;;;;;;;;;;5104020;28;20200;-77
2023/06/16 14:03:19;;;;;;;5.33;4.07;;;;;;;;;;5094141;28;20208;-77
2023/06/16 14:05:46;;;;;;;10.53;4.40;;;;;;;;;;5112812;28;20207;-77
2023/06/16 14:08:13;;;;;;;7.80;4.50;;;;;;;;;;5099034;28;20204;-77
2023/06/16 14:10:39;;;;;;;4.73;3.90;;;;;;;;;;5112295;28;20200;-77
2023/06/16 14:13:08;;;;;;;7.87;4.23;;;;;;;;;;5098176;28;20227;-77
2023/06/16 14:15:35;;;;;;;6.57;4.53;;;;;;;;;;5112420;28;20207;-77
2023/06/16 14:18:02;;;;;;;4.97;4.57;;;;;;;;;;5108924;28;20200;-77
2023/06/16 14:20:34;;;;;;;4.53;4.10;;;;;;;;;;5102543;28;20204;-77
2023/06/16 14:23:00;;;;;;;5.43;4.37;;;;;;;;;;5098187;28;20278;-77
2023/06/16 14:25:27;;;;;;;6.07;4.00;;;;;;;;;;5101177;28;20282;-77
2023/06/16 14:27:54;;;;;;;4.87;3.80;;;;;;;;;;5105211;28;20196;-77
2023/06/16 14:30:22;;;;;;;6.73;4.50;;;;;;;;;;5092257;28;20196;-77
2023/06/16 14:32:49;;;;;;;4.73;4.17;;;;;;;;;;5104373;28;20228;-77
2023/06/16 14:35:16;;;;;;;7.00;3.80;;;;;;;;;;5105145;28;20283;-77
2023/06/16 14:37:43;;;;;;;5.47;4.03;;;;;;;;;;5111682;28;20559;-77
2023/06/16 14:40:11;;;;;;;5.07;4.60;;;;;;;;;;5097938;28;20208;-78
2023/06/16 14:42:38;;;;;;;18.00;13.17;;;;;;;;;;5104147;28;20201;-77
2023/06/16 14:45:06;;;;;;;7.60;5.27;;;;;;;;;;5104811;28;20730;-78
2023/06/16 14:47:34;;;;;;;6.70;4.20;;;;;;;;;;5098367;28;20701;-77